createdAt,value
2018-04-25T00:02:58.035Z,16.47
2018-04-25T00:06:01.813Z,19.00
2018-04-25T00:09:05.622Z,18.57
2018-04-25T00:12:09.436Z,17.40
2018-04-25T00:15:13.214Z,15.13
2018-04-25T00:18:17.776Z,15.73
2018-04-25T00:21:21.909Z,12.83
2018-04-25T00:24:25.765Z,26.17
2018-04-25T00:27:29.582Z,32.23
2018-04-25T00:30:33.369Z,26.40
2018-04-25T00:33:37.910Z,17.67
2018-04-25T00:36:42.461Z,12.83
2018-04-25T00:39:46.254Z,13.30
2018-04-25T00:42:50.101Z,12.47
2018-04-25T00:45:53.934Z,12.37
2018-04-25T00:48:57.768Z,12.07
2018-04-25T00:52:01.580Z,11.37
2018-04-25T00:55:05.417Z,11.40
2018-04-25T00:58:09.220Z,7.03
2018-04-25T01:01:13.875Z,8.00
2018-04-25T01:04:17.678Z,6.07
2018-04-25T01:07:22.234Z,7.57
2018-04-25T01:10:26.079Z,8.17
2018-04-25T01:13:29.996Z,7.00
2018-04-25T01:16:33.787Z,7.03
2018-04-25T01:19:38.394Z,10.37
2018-04-25T01:22:42.205Z,5.87
2018-04-25T01:25:45.990Z,6.40
2018-04-25T01:28:53.933Z,7.23
2018-04-25T01:31:57.769Z,7.60
2018-04-25T01:35:01.639Z,7.83
2018-04-25T01:38:06.200Z,7.33
2018-04-25T01:41:13.562Z,7.03
2018-04-25T01:44:25.966Z,6.63
2018-04-25T01:47:35.041Z,6.03
2018-04-25T01:50:38.817Z,5.33
2018-04-25T01:54:01.177Z,7.00
2018-04-25T01:57:23.567Z,8.03
2018-04-25T02:00:45.190Z,5.93
2018-04-25T02:03:56.490Z,4.83
2018-04-25T02:07:00.287Z,5.37
2018-04-25T02:10:04.102Z,5.73
2018-04-25T02:13:07.906Z,7.73
2018-04-25T02:16:11.783Z,4.00
2018-04-25T02:19:15.582Z,6.97
2018-04-25T02:22:19.430Z,6.23
2018-04-25T02:25:23.257Z,3.50
2018-04-25T02:28:27.096Z,4.60
2018-04-25T02:31:30.889Z,5.53
2018-04-25T02:34:35.435Z,5.40
2018-04-25T02:37:39.954Z,3.97
2018-04-25T02:40:43.840Z,5.47
2018-04-25T02:43:47.641Z,7.10
2018-04-25T02:46:51.451Z,4.53
2018-04-25T02:49:56.016Z,5.73
2018-04-25T02:52:59.830Z,4.67
2018-04-25T02:56:03.650Z,4.23
2018-04-25T02:59:08.307Z,4.03
2018-04-25T03:02:12.086Z,4.20
2018-04-25T03:05:16.661Z,5.70
2018-04-25T03:08:20.480Z,5.17
2018-04-25T03:11:25.148Z,4.73
2018-04-25T03:14:29.073Z,5.40
2018-04-25T03:17:32.879Z,16.23
2018-04-25T03:20:36.677Z,6.90
2018-04-25T03:23:40.457Z,8.77
2018-04-25T03:26:44.354Z,7.87
2018-04-25T03:29:48.170Z,10.47
2018-04-25T03:32:52.710Z,7.77
2018-04-25T03:35:57.261Z,7.53
2018-04-25T03:39:01.029Z,7.30
2018-04-25T03:42:04.842Z,8.50
2018-04-25T03:45:08.647Z,10.93
2018-04-25T03:48:12.428Z,8.97
2018-04-25T03:51:16.226Z,8.80
2018-04-25T03:54:20.099Z,9.83
2018-04-25T03:57:23.970Z,9.07
2018-04-25T04:00:27.813Z,9.63
2018-04-25T04:03:31.680Z,10.43
2018-04-25T04:06:35.508Z,11.53
2018-04-25T04:09:39.307Z,12.30
2018-04-25T04:12:43.831Z,12.67
2018-04-25T04:15:47.693Z,13.27
2018-04-25T04:18:51.489Z,13.00
2018-04-25T04:21:55.354Z,14.67
2018-04-25T04:24:59.193Z,14.60
2018-04-25T04:28:02.968Z,15.67
2018-04-25T04:31:06.773Z,16.13
2018-04-25T04:34:10.559Z,20.17
2018-04-25T04:37:14.370Z,19.97
2018-04-25T04:40:18.185Z,22.07
2018-04-25T04:43:21.997Z,21.93
2018-04-25T04:46:26.554Z,24.53
2018-04-25T04:49:30.501Z,22.47
2018-04-25T04:52:34.901Z,19.67
2018-04-25T04:55:39.447Z,21.00
2018-04-25T04:58:43.995Z,19.70
2018-04-25T05:01:48.546Z,19.50
2018-04-25T05:04:52.368Z,20.93
2018-04-25T05:07:56.200Z,18.83
2018-04-25T05:11:00.012Z,19.90
2018-04-25T05:14:04.541Z,18.47
2018-04-25T05:17:09.101Z,18.50
2018-04-25T05:20:12.910Z,18.40
2018-04-25T05:23:17.472Z,18.00
2018-04-25T05:26:21.393Z,17.70
2018-04-25T05:29:25.211Z,17.03
2018-04-25T05:32:29.033Z,17.20
2018-04-25T05:35:33.577Z,17.00
2018-04-25T05:38:38.319Z,17.83
2018-04-25T05:41:42.971Z,16.00
2018-04-25T05:44:46.791Z,16.67
2018-04-25T05:47:50.600Z,17.33
2018-04-25T05:50:55.174Z,16.67
2018-04-25T05:53:58.952Z,17.57
2018-04-25T05:57:02.758Z,15.13
2018-04-25T06:00:06.564Z,16.27
2018-04-25T06:03:10.452Z,16.70
2018-04-25T06:06:15.000Z,17.07
2018-04-25T06:09:18.771Z,16.03
2018-04-25T06:12:22.779Z,16.30
2018-04-25T06:15:27.569Z,18.70
2018-04-25T06:18:31.358Z,18.93
2018-04-25T06:21:35.241Z,20.80
2018-04-25T06:24:39.765Z,17.87
2018-04-25T06:27:44.341Z,13.03
2018-04-25T06:30:48.273Z,12.60
2018-04-25T06:33:52.072Z,14.33
2018-04-25T06:36:55.886Z,23.10
2018-04-25T06:40:00.415Z,18.53
2018-04-25T06:43:04.219Z,28.17
2018-04-25T06:46:08.033Z,26.90
2018-04-25T06:49:11.818Z,18.53
2018-04-25T06:52:15.644Z,17.93
2018-04-25T06:55:19.429Z,18.23
2018-04-25T06:58:23.321Z,10.77
2018-04-25T07:01:27.142Z,12.93
2018-04-25T07:04:30.927Z,9.97
2018-04-25T07:07:35.473Z,9.20
2018-04-25T07:10:40.016Z,7.53
2018-04-25T07:13:43.810Z,7.40
2018-04-25T07:16:47.664Z,6.50
2018-04-25T07:19:52.187Z,6.03
2018-04-25T07:22:56.004Z,5.80
2018-04-25T07:26:01.286Z,8.53
2018-04-25T07:29:05.079Z,11.37
2018-04-25T07:32:09.002Z,10.50
2018-04-25T07:35:12.783Z,9.47
2018-04-25T07:38:16.617Z,8.03
2018-04-25T07:41:20.420Z,7.83
2018-04-25T07:44:24.258Z,6.43
2018-04-25T07:47:28.077Z,9.73
2018-04-25T07:50:31.872Z,23.77
2018-04-25T07:53:36.432Z,31.80
2018-04-25T07:56:40.255Z,31.50
2018-04-25T07:59:44.045Z,30.03
2018-04-25T08:02:47.907Z,25.50
2018-04-25T08:05:52.461Z,24.93
2018-04-25T08:08:56.306Z,19.90
2018-04-25T08:12:00.133Z,16.83
2018-04-25T08:15:22.201Z,15.10
2018-04-25T08:18:44.081Z,13.27
2018-04-25T08:21:47.850Z,11.77
2018-04-25T08:24:51.764Z,9.27
2018-04-25T08:27:55.576Z,8.80
2018-04-25T08:30:59.376Z,9.73
2018-04-25T08:34:03.931Z,7.63
2018-04-25T08:37:08.576Z,4.90
2018-04-25T08:40:13.102Z,3.87
2018-04-25T08:43:17.659Z,3.60
2018-04-25T08:46:22.197Z,4.90
2018-04-25T08:49:26.780Z,5.97
2018-04-25T08:52:30.679Z,3.93
2018-04-25T08:55:34.494Z,6.90
2018-04-25T08:58:39.041Z,15.60
2018-04-25T09:01:42.902Z,12.00
2018-04-25T09:04:46.831Z,11.33
2018-04-25T09:07:50.709Z,14.10
2018-04-25T09:10:55.328Z,6.37
2018-04-25T09:13:59.188Z,6.77
2018-04-25T09:17:02.978Z,7.23
2018-04-25T09:20:06.788Z,5.37
2018-04-25T09:23:10.613Z,3.93
2018-04-25T09:26:15.121Z,5.77
2018-04-25T09:29:18.920Z,4.40
2018-04-25T09:32:23.576Z,4.97
2018-04-25T09:35:27.520Z,5.07
2018-04-25T09:38:31.420Z,3.53
2018-04-25T09:41:35.193Z,4.73
2018-04-25T09:44:39.826Z,4.07
2018-04-25T09:47:44.470Z,2.70
2018-04-25T09:50:48.322Z,4.07
2018-04-25T09:53:52.164Z,2.13
2018-04-25T09:56:56.753Z,3.33
2018-04-25T10:00:00.566Z,1.60
2018-04-25T10:03:04.381Z,3.07
2018-04-25T10:06:08.187Z,1.37
2018-04-25T10:09:12.003Z,1.50
2018-04-25T10:12:16.519Z,2.40
2018-04-25T10:15:20.342Z,1.47
2018-04-25T10:18:24.154Z,1.00
2018-04-25T10:21:27.933Z,10.77
2018-04-25T10:24:32.477Z,14.10
2018-04-25T10:27:37.003Z,23.73
2018-04-25T10:30:40.847Z,27.90
2018-04-25T10:33:45.532Z,23.20
2018-04-25T10:36:49.330Z,27.77
2018-04-25T10:39:53.146Z,23.37
2018-04-25T10:42:56.952Z,25.97
2018-04-25T10:46:01.476Z,22.60
2018-04-25T10:49:05.309Z,28.57
2018-04-25T10:52:09.098Z,26.43
2018-04-25T10:55:12.903Z,30.40
2018-04-25T10:58:16.795Z,33.47
2018-04-25T11:01:21.316Z,36.00
2018-04-25T11:04:25.960Z,30.67
2018-04-25T11:07:29.889Z,35.87
2018-04-25T11:10:33.776Z,51.63
2018-04-25T11:13:37.660Z,38.97
2018-04-25T11:16:42.283Z,42.50
2018-04-25T11:19:46.235Z,66.80
2018-04-25T11:22:50.798Z,75.23
2018-04-25T11:25:54.692Z,95.63
2018-04-25T11:28:59.243Z,106.93
2018-04-25T11:32:03.797Z,122.13
2018-04-25T11:35:07.640Z,122.27
2018-04-25T11:38:11.513Z,132.57
2018-04-25T11:41:15.349Z,116.93
2018-04-25T11:44:19.906Z,118.87
2018-04-25T11:47:23.729Z,120.70
2018-04-25T11:50:28.296Z,120.63
2018-04-25T11:53:32.106Z,115.37
2018-04-25T11:56:35.907Z,118.67
2018-04-25T11:59:40.566Z,118.97
2018-04-25T12:02:44.375Z,109.23
2018-04-25T12:05:48.142Z,109.77
2018-04-25T12:08:51.962Z,111.17
2018-04-25T12:11:55.764Z,104.40
2018-04-25T12:14:59.591Z,100.47
2018-04-25T12:18:03.410Z,100.33
2018-04-25T12:21:07.961Z,92.43
2018-04-25T12:24:11.887Z,90.03
2018-04-25T12:27:15.708Z,84.97
2018-04-25T12:30:19.517Z,101.90
2018-04-25T12:33:24.056Z,129.37
2018-04-25T12:36:28.669Z,180.23
2018-04-25T12:39:32.656Z,201.87
2018-04-25T12:42:36.672Z,205.03
2018-04-25T12:45:40.541Z,210.10
2018-04-25T12:48:44.332Z,183.43
2018-04-25T12:51:48.143Z,182.80
2018-04-25T12:54:51.953Z,176.03
2018-04-25T12:57:56.637Z,166.97
2018-04-25T13:01:01.023Z,157.67
2018-04-25T13:04:06.009Z,142.70
2018-04-25T13:07:10.518Z,133.47
2018-04-25T13:10:14.607Z,126.80
2018-04-25T13:13:19.414Z,122.63
2018-04-25T13:16:23.969Z,114.10
2018-04-25T13:19:27.777Z,109.23
2018-04-25T13:22:32.425Z,99.97
2018-04-25T13:25:37.948Z,94.83
2018-04-25T13:28:41.762Z,97.70
2018-04-25T13:31:45.756Z,90.20
2018-04-25T13:34:49.562Z,87.13
2018-04-25T13:37:54.133Z,85.07
2018-04-25T13:40:57.922Z,78.60
2018-04-25T13:44:02.453Z,72.93
2018-04-25T13:47:07.032Z,68.77
2018-04-25T13:50:11.255Z,63.80
2018-04-25T13:53:15.051Z,62.13
2018-04-25T13:56:18.852Z,59.53
2018-04-25T13:59:22.636Z,57.97
2018-04-25T14:02:26.444Z,54.57
2018-04-25T14:05:30.252Z,54.03
2018-04-25T14:08:34.940Z,52.20
2018-04-25T14:11:38.750Z,49.90
2018-04-25T14:14:42.556Z,47.53
2018-04-25T14:17:47.171Z,43.87
2018-04-25T14:20:50.999Z,41.97
2018-04-25T14:23:55.569Z,43.23
2018-04-25T14:26:59.397Z,41.20
2018-04-25T14:30:03.223Z,38.20
2018-04-25T14:33:07.013Z,38.17
2018-04-25T14:36:10.833Z,48.97
2018-04-25T14:39:14.627Z,103.13
2018-04-25T14:42:18.448Z,152.43
2018-04-25T14:45:22.269Z,156.73
2018-04-25T14:48:26.124Z,141.43
2018-04-25T14:51:29.915Z,126.03
2018-04-25T14:54:33.776Z,121.03
2018-04-25T14:57:37.571Z,115.73
2018-04-25T15:00:41.385Z,95.67
2018-04-25T15:03:45.179Z,56.30
2018-04-25T15:06:49.762Z,39.63
2018-04-25T15:09:53.557Z,23.90
2018-04-25T15:12:57.381Z,17.43
2018-04-25T15:16:01.191Z,13.70
2018-04-25T15:19:05.721Z,11.67
2018-04-25T15:22:09.541Z,13.33
2018-04-25T15:25:13.363Z,6.57
2018-04-25T15:28:17.532Z,9.80
2018-04-25T15:31:21.351Z,27.47
2018-04-25T15:34:25.140Z,31.60
2018-04-25T15:37:29.711Z,21.43
2018-04-25T15:40:33.533Z,17.43
2018-04-25T15:43:38.078Z,12.93
2018-04-25T15:46:41.897Z,9.10
2018-04-25T15:49:45.683Z,8.90
2018-04-25T15:52:49.492Z,7.57
2018-04-25T15:55:53.301Z,10.47
2018-04-25T15:58:57.076Z,7.60
2018-04-25T16:03:27.069Z,18.60
2018-04-25T16:06:30.968Z,119.27
2018-04-25T16:09:35.508Z,127.97
2018-04-25T16:12:40.069Z,134.60
2018-04-25T16:15:43.887Z,131.70
2018-04-25T16:18:47.677Z,114.47
2018-04-25T16:21:51.564Z,113.47
2018-04-25T16:24:55.359Z,107.93
2018-04-25T16:27:59.172Z,104.30
2018-04-25T16:31:03.786Z,107.20
2018-04-25T16:34:07.722Z,105.60
2018-04-25T16:37:11.544Z,102.90
2018-04-25T16:40:15.334Z,98.50
2018-04-25T16:43:19.145Z,100.73
2018-04-25T16:46:23.084Z,100.30
2018-04-25T16:49:26.875Z,100.57
2018-04-25T16:52:30.691Z,95.00
2018-04-25T16:55:35.236Z,96.30
2018-04-25T16:58:39.055Z,94.37
2018-04-25T17:01:43.648Z,93.83
2018-04-25T17:04:47.452Z,94.03
2018-04-25T17:07:51.262Z,90.53
2018-04-25T17:10:55.056Z,92.80
2018-04-25T17:13:59.628Z,88.87
2018-04-25T17:17:03.454Z,85.33
2018-04-25T17:20:07.259Z,83.73
2018-04-25T17:23:11.814Z,82.83
2018-04-25T17:26:15.599Z,82.30
2018-04-25T17:29:19.425Z,79.70
2018-04-25T17:32:23.264Z,80.40
2018-04-25T17:35:27.830Z,76.50
2018-04-25T17:38:31.658Z,78.00
2018-04-25T17:41:35.564Z,76.87
2018-04-25T17:44:40.098Z,76.43
2018-04-25T17:47:44.662Z,73.73
2018-04-25T17:50:48.449Z,73.87
2018-04-25T17:53:52.273Z,71.23
2018-04-25T17:56:56.134Z,70.57
2018-04-25T17:59:59.925Z,70.33
2018-04-25T18:03:03.805Z,70.70
2018-04-25T18:06:07.582Z,69.13
2018-04-25T18:09:12.132Z,67.20
2018-04-25T18:12:16.684Z,66.50
2018-04-25T18:15:20.475Z,66.37
2018-04-25T18:18:24.290Z,66.60
2018-04-25T18:21:28.079Z,65.83
2018-04-25T18:24:31.911Z,63.20
2018-04-25T18:27:35.738Z,63.87
2018-04-25T18:30:39.531Z,61.70
2018-04-25T18:33:43.351Z,63.40
2018-04-25T18:36:47.887Z,60.70
2018-04-25T18:39:52.456Z,62.30
2018-04-25T18:42:56.271Z,60.63
2018-04-25T18:46:00.060Z,59.70
2018-04-25T18:49:04.659Z,58.87
2018-04-25T18:52:08.460Z,58.93
2018-04-25T18:55:12.278Z,56.90
2018-04-25T18:58:16.093Z,57.57
2018-04-25T19:01:20.632Z,56.10
2018-04-25T19:04:24.471Z,54.83
2018-04-25T19:07:28.293Z,54.97
2018-04-25T19:10:32.832Z,52.87
2018-04-25T19:13:37.394Z,55.63
2018-04-25T19:16:41.199Z,52.90
2018-04-25T19:19:45.763Z,53.60
2018-04-25T19:22:49.578Z,52.13
2018-04-25T19:25:53.432Z,52.07
2018-04-25T19:28:57.228Z,51.20
2018-04-25T19:32:01.037Z,51.33
2018-04-25T19:35:04.873Z,50.07
2018-04-25T19:38:08.690Z,48.67
2018-04-25T19:41:13.220Z,49.93
2018-04-25T19:44:17.774Z,48.87
2018-04-25T19:47:22.395Z,48.23
2018-04-25T19:50:26.234Z,47.50
2018-04-25T19:53:30.788Z,47.23
2018-04-25T19:56:35.335Z,48.27
2018-04-25T19:59:39.252Z,46.70
2018-04-25T20:02:43.042Z,48.13
2018-04-25T20:05:46.858Z,46.63
2018-04-25T20:08:50.674Z,47.77
2018-04-25T20:11:54.527Z,45.70
2018-04-25T20:14:59.083Z,45.67
2018-04-25T20:18:03.846Z,45.00
2018-04-25T20:21:07.642Z,43.97
2018-04-25T20:24:12.237Z,46.50
2018-04-25T20:27:16.026Z,43.40
2018-04-25T20:30:19.848Z,42.67
2018-04-25T20:33:24.408Z,43.03
2018-04-25T20:36:28.195Z,42.97
2018-04-25T20:39:32.011Z,41.27
2018-04-25T20:42:35.809Z,40.57
2018-04-25T20:45:39.620Z,54.17
2018-04-25T20:48:43.442Z,41.77
2018-04-25T20:51:47.231Z,43.90
2018-04-25T20:54:51.795Z,43.03
2018-04-25T20:57:55.583Z,41.10
2018-04-25T21:01:00.173Z,41.20
2018-04-25T21:04:03.987Z,39.83
2018-04-25T21:07:07.796Z,39.63
2018-04-25T21:10:11.609Z,39.13
2018-04-25T21:13:16.139Z,40.13
2018-04-25T21:16:19.944Z,39.13
2018-04-25T21:19:24.525Z,37.23
2018-04-25T21:22:29.059Z,41.27
2018-04-25T21:25:32.899Z,37.43
2018-04-25T21:28:36.739Z,38.43
2018-04-25T21:31:40.523Z,38.53
2018-04-25T21:34:45.102Z,36.30
2018-04-25T21:37:48.890Z,36.57
2018-04-25T21:40:53.441Z,37.47
2018-04-25T21:43:58.067Z,36.97
2018-04-25T21:47:01.890Z,37.33
2018-04-25T21:50:05.711Z,43.37
2018-04-25T21:53:09.506Z,49.80
2018-04-25T21:56:13.318Z,38.33
2018-04-25T21:59:17.138Z,44.10
2018-04-25T22:02:20.959Z,44.00
2018-04-25T22:05:24.768Z,39.90
2018-04-25T22:08:28.559Z,43.77
2018-04-25T22:11:32.373Z,44.00
2018-04-25T22:14:36.221Z,40.87
2018-04-25T22:17:40.755Z,43.33
2018-04-25T22:20:45.324Z,43.87
2018-04-25T22:23:49.112Z,43.83
2018-04-25T22:26:52.930Z,45.53
2018-04-25T22:29:56.758Z,49.00
2018-04-25T22:33:00.547Z,49.73
2018-04-25T22:36:04.370Z,47.30
2018-04-25T22:39:08.175Z,46.37
2018-04-25T22:42:11.996Z,44.20
2018-04-25T22:45:15.836Z,50.80
2018-04-25T22:48:19.636Z,50.23
2018-04-25T22:51:23.457Z,48.73
2018-04-25T22:54:27.274Z,50.60
2018-04-25T22:57:31.814Z,49.20
2018-04-25T23:00:36.369Z,47.97
2018-04-25T23:03:40.165Z,52.97
2018-04-25T23:06:44.732Z,58.70
2018-04-25T23:09:48.544Z,55.90
2018-04-25T23:12:53.064Z,54.87
2018-04-25T23:15:56.881Z,54.53
2018-04-25T23:19:00.678Z,48.67
2018-04-25T23:22:04.517Z,50.07
2018-04-25T23:25:08.346Z,54.37
2018-04-25T23:28:12.131Z,53.83
2018-04-25T23:31:15.950Z,48.47
2018-04-25T23:34:19.740Z,54.90
2018-04-25T23:37:23.567Z,49.87
2018-04-25T23:40:28.142Z,47.70
2018-04-25T23:43:31.938Z,48.90
2018-04-25T23:46:36.518Z,47.83
2018-04-25T23:49:40.302Z,47.37
2018-04-25T23:52:44.854Z,48.20
2018-04-25T23:55:49.411Z,51.60
2018-04-25T23:58:53.314Z,50.40
